Time;durP1;ratioP1;P1;durP2;ratioP2;P2;SDS_P1;SDS_P2;PMS_P1;PMS_P2;Temp;Humidity;BMP_temperature;BMP_pressure;BME280_temperature;BME280_humidity;BME280_pressure;Samples;Min_cycle;Max_cycle;Signal;HPM_P1;HPM_P2
2021/09/02 00:00:19;;;;;;;17.75;7.72;;;;;;;10.56;83.85;98413.47;5134544;27;20049;-76
2021/09/02 00:02:45;;;;;;;18.27;7.70;;;;;;;10.68;83.19;98412.28;5134587;27;20178;-75
2021/09/02 00:05:10;;;;;;;23.95;7.53;;;;;;;10.79;83.09;98417.34;5134314;27;20503;-75
2021/09/02 00:07:36;;;;;;;19.77;8.30;;;;;;;10.82;82.38;98409.09;5134311;27;20115;-74
2021/09/02 00:10:03;;;;;;;20.17;8.32;;;;;;;10.87;82.02;98413.09;5133937;27;20077;-73
2021/09/02 00:12:28;;;;;;;21.13;8.65;;;;;;;10.95;81.72;98415.81;5134250;27;20079;-75
2021/09/02 00:14:54;;;;;;;19.83;8.77;;;;;;;11.08;81.45;98413.59;5134307;27;20081;-77
2021/09/02 00:17:21;;;;;;;23.73;8.85;;;;;;;11.27;80.91;98409.13;5134240;27;22014;-72
2021/09/02 00:19:47;;;;;;;19.98;8.65;;;;;;;11.41;80.34;98403.25;5134172;27;20126;-74
2021/09/02 00:22:12;;;;;;;20.50;8.73;;;;;;;11.44;79.57;98412.69;5133956;27;20054;-74
2021/09/02 00:24:38;;;;;;;17.25;8.30;;;;;;;11.55;79.01;98409.81;5133901;27;20046;-74
2021/09/02 00:27:10;;;;;;;24.98;8.63;;;;;;;11.69;78.33;98411.06;5132830;27;20046;-76
2021/09/02 00:29:35;;;;;;;18.85;7.60;;;;;;;11.75;78.21;98405.13;5134192;27;20395;-73
2021/09/02 00:32:01;;;;;;;18.55;7.63;;;;;;;11.78;77.48;98407.44;5133641;27;20051;-77
2021/09/02 00:34:27;;;;;;;24.98;8.45;;;;;;;11.79;77.44;98411.75;5133924;27;20614;-75
2021/09/02 00:36:53;;;;;;;22.45;8.32;;;;;;;11.75;77.13;98410.44;5133522;27;20184;-74
2021/09/02 00:39:19;;;;;;;18.20;7.82;;;;;;;11.80;77.05;98412.59;5133466;27;20371;-74
2021/09/02 00:41:44;;;;;;;18.50;8.13;;;;;;;11.82;77.37;98411.47;5133844;27;20508;-74
2021/09/02 00:44:10;;;;;;;19.10;7.55;;;;;;;11.83;77.11;98412.28;5133868;27;20069;-71
2021/09/02 00:46:36;;;;;;;19.80;7.63;;;;;;;11.91;77.06;98408.84;5133774;27;20043;-74
2021/09/02 00:49:02;;;;;;;20.45;8.10;;;;;;;11.89;75.99;98405.53;5133521;27;20043;-71
2021/09/02 00:51:28;;;;;;;17.50;8.07;;;;;;;11.90;75.85;98407.16;5133695;27;20590;-73
2021/09/02 00:53:56;;;;;;;15.13;7.53;;;;;;;11.93;75.36;98407.69;5133467;27;20475;-78
2021/09/02 00:56:27;;;;;;;16.60;7.53;;;;;;;11.93;75.20;98407.69;5132198;27;20547;-73
2021/09/02 00:58:54;;;;;;;15.65;7.47;;;;;;;11.97;74.62;98402.94;5132669;27;20046;-72
2021/09/02 01:01:21;;;;;;;19.05;8.15;;;;;;;11.97;74.75;98403.78;5133220;27;20054;-72
2021/09/02 01:03:47;;;;;;;18.05;7.97;;;;;;;12.00;74.86;98407.94;5133422;27;20074;-72
2021/09/02 01:06:14;;;;;;;18.40;8.00;;;;;;;12.07;74.55;98406.28;5133046;27;20085;-74
2021/09/02 01:08:40;;;;;;;14.35;7.28;;;;;;;12.07;74.56;98413.41;5133397;27;20039;-74
2021/09/02 01:11:05;;;;;;;17.30;8.10;;;;;;;12.02;73.96;98411.22;5132826;27;20049;-77
2021/09/02 01:13:31;;;;;;;17.40;7.93;;;;;;;11.93;74.17;98412.97;5133178;27;20047;-73
2021/09/02 01:15:58;;;;;;;17.23;8.05;;;;;;;11.94;74.78;98404.06;5133167;27;20051;-74
2021/09/02 01:18:24;;;;;;;17.52;7.05;;;;;;;11.85;74.68;98412.13;5131570;27;20043;-74
2021/09/02 01:20:49;;;;;;;14.15;7.57;;;;;;;11.69;74.72;98405.75;5132910;27;20039;-73
2021/09/02 01:23:18;;;;;;;21.17;7.65;;;;;;;11.56;74.96;98415.94;5133043;27;20437;-72
2021/09/02 01:25:45;;;;;;;20.10;7.95;;;;;;;11.40;75.85;98416.66;5131890;27;20077;-71
2021/09/02 01:28:12;;;;;;;22.55;9.07;;;;;;;11.26;76.31;98416.22;5132771;27;20578;-73
2021/09/02 01:30:39;;;;;;;22.25;9.45;;;;;;;11.14;76.54;98418.28;5132691;27;20055;-72
2021/09/02 01:33:08;;;;;;;22.00;9.07;;;;;;;10.99;76.90;98423.28;5132507;27;20127;-73
2021/09/02 01:35:34;;;;;;;19.85;8.00;;;;;;;10.90;77.66;98421.53;5132957;27;20043;-76
2021/09/02 01:38:02;;;;;;;21.42;7.88;;;;;;;10.84;78.09;98430.09;5131270;27;20050;-73
2021/09/02 01:40:37;;;;;;;24.23;8.50;;;;;;;10.73;78.40;98428.50;5132506;27;20043;-72
2021/09/02 01:43:05;;;;;;;20.45;9.57;;;;;;;10.66;78.88;98435.38;5132774;27;20107;-72
2021/09/02 01:45:31;;;;;;;24.38;11.00;;;;;;;10.59;79.13;98435.16;5132610;27;20038;-72
2021/09/02 01:47:59;;;;;;;16.35;7.95;;;;;;;10.55;79.22;98439.06;5132466;27;20043;-74
2021/09/02 01:50:25;;;;;;;18.08;7.38;;;;;;;10.56;79.53;98435.44;5132460;27;20389;-74
2021/09/02 01:52:59;;;;;;;22.42;8.02;;;;;;;10.62;79.52;98440.13;5132617;27;20043;-72
2021/09/02 01:55:26;;;;;;;17.25;8.25;;;;;;;10.70;79.45;98442.03;5131513;27;20042;-75
2021/09/02 01:57:52;;;;;;;17.15;8.20;;;;;;;10.77;79.33;98445.72;5118043;27;20044;-76
2021/09/02 02:00:19;;;;;;;16.95;7.65;;;;;;;10.82;78.83;98440.00;5110782;28;20047;-74
2021/09/02 02:02:45;;;;;;;18.85;8.05;;;;;;;10.87;78.99;98450.97;5130315;27;20515;-73
2021/09/02 02:05:12;;;;;;;17.50;8.07;;;;;;;10.88;78.61;98449.13;5131863;27;20129;-75
2021/09/02 02:07:42;;;;;;;17.83;7.78;;;;;;;10.96;78.57;98451.88;5131650;27;20043;-75
2021/09/02 02:10:11;;;;;;;19.75;8.82;;;;;;;11.01;78.55;98454.88;5131859;27;20046;-72
2021/09/02 02:12:37;;;;;;;16.23;7.90;;;;;;;11.08;78.29;98450.66;5132248;27;20133;-72
2021/09/02 02:15:04;;;;;;;18.13;8.10;;;;;;;11.13;78.17;98453.66;5131948;27;20045;-73
2021/09/02 02:17:30;;;;;;;19.92;8.05;;;;;;;11.17;78.04;98457.66;5131961;27;20043;-75
2021/09/02 02:19:57;;;;;;;15.20;7.70;;;;;;;11.26;78.07;98463.03;5131052;27;20541;-78
2021/09/02 02:22:24;;;;;;;15.30;7.13;;;;;;;11.34;78.23;98455.19;5132010;27;20049;-74
2021/09/02 02:24:49;;;;;;;16.25;6.53;;;;;;;11.41;77.67;98461.50;5131827;28;20039;-74
2021/09/02 02:27:15;;;;;;;20.10;8.85;;;;;;;11.60;77.66;98457.84;5130948;27;20462;-78
2021/09/02 02:29:41;;;;;;;17.70;7.88;;;;;;;11.69;76.97;98447.28;5132372;28;20118;-75
2021/09/02 02:32:07;;;;;;;15.20;7.93;;;;;;;11.74;76.24;98450.28;5130850;28;20161;-73
2021/09/02 02:34:33;;;;;;;17.95;7.50;;;;;;;11.68;76.53;98443.81;5131874;27;20039;-70
2021/09/02 02:36:59;;;;;;;18.27;7.55;;;;;;;11.59;76.42;98437.63;5132115;27;20483;-74
2021/09/02 02:39:25;;;;;;;18.45;8.00;;;;;;;11.63;76.26;98427.56;5131769;27;20046;-75
2021/09/02 02:41:51;;;;;;;19.58;8.57;;;;;;;11.62;76.48;98436.50;5131864;27;20039;-76
2021/09/02 02:44:17;;;;;;;21.55;8.52;;;;;;;11.63;76.44;98431.03;5131303;27;20043;-73
2021/09/02 02:46:42;;;;;;;58.83;25.27;;;;;;;11.57;76.92;98436.94;5131902;27;20035;-73
2021/09/02 02:49:08;;;;;;;21.63;8.15;;;;;;;11.51;76.81;98440.22;5131494;27;20047;-73
2021/09/02 02:51:35;;;;;;;17.70;8.25;;;;;;;11.46;77.59;98446.00;5131725;27;20480;-75
2021/09/02 02:54:02;;;;;;;20.48;8.13;;;;;;;11.47;77.57;98450.28;5131679;28;20404;-75
2021/09/02 02:56:27;;;;;;;18.65;7.82;;;;;;;11.52;77.33;98447.19;5129431;28;20054;-75
2021/09/02 02:58:53;;;;;;;16.33;8.18;;;;;;;11.63;77.15;98443.47;5131742;28;20043;-76
2021/09/02 03:01:19;;;;;;;19.08;7.82;;;;;;;11.80;77.08;98445.22;5131521;27;20126;-78
2021/09/02 03:03:45;;;;;;;20.05;8.30;;;;;;;11.81;76.42;98446.88;5130579;28;20050;-74
2021/09/02 03:06:12;;;;;;;17.17;7.97;;;;;;;11.97;76.58;98455.94;5128797;28;20054;-74
2021/09/02 03:08:39;;;;;;;17.95;8.45;;;;;;;12.06;75.80;98455.00;5128657;28;20043;-79
2021/09/02 03:11:05;;;;;;;17.70;8.05;;;;;;;12.17;75.48;98461.00;5114668;28;20085;-77
2021/09/02 03:13:30;;;;;;;16.85;8.23;;;;;;;12.19;75.16;98457.19;5123520;28;20500;-78
2021/09/02 03:15:56;;;;;;;18.90;8.10;;;;;;;12.23;75.44;98469.13;5130144;27;20035;-76
2021/09/02 03:18:22;;;;;;;26.48;9.73;;;;;;;12.24;74.97;98477.94;5131047;27;20373;-76
2021/09/02 03:20:48;;;;;;;18.65;8.18;;;;;;;12.25;75.07;98468.97;5131791;27;20039;-78
2021/09/02 03:23:13;;;;;;;20.92;8.38;;;;;;;12.38;74.40;98479.16;5135271;27;20102;-80
2021/09/02 03:25:39;;;;;;;21.67;9.55;;;;;;;12.44;74.21;98479.34;5135057;27;20145;-76
2021/09/02 03:28:05;;;;;;;21.08;9.23;;;;;;;12.36;74.79;98479.31;5135304;27;20483;-76
2021/09/02 03:30:31;;;;;;;24.60;9.35;;;;;;;12.32;74.23;98490.41;5135227;27;20074;-77
2021/09/02 03:32:57;;;;;;;18.70;9.20;;;;;;;12.30;74.65;98488.72;5135437;27;20051;-77
2021/09/02 03:35:24;;;;;;;22.20;9.40;;;;;;;12.36;74.67;98492.56;5134218;27;20039;-79
2021/09/02 03:37:49;;;;;;;20.30;9.00;;;;;;;12.45;74.08;98483.66;5134946;27;20043;-74
2021/09/02 03:40:15;;;;;;;23.40;10.07;;;;;;;12.54;73.87;98483.69;5134723;27;20039;-75
2021/09/02 03:42:41;;;;;;;19.98;9.27;;;;;;;12.61;73.69;98490.00;5135646;27;20135;-74
2021/09/02 03:45:08;;;;;;;24.20;9.70;;;;;;;12.60;72.73;98483.06;5135093;27;20046;-75
2021/09/02 03:47:34;;;;;;;20.98;8.77;;;;;;;12.59;73.05;98489.34;5135078;27;20039;-77
2021/09/02 03:50:00;;;;;;;22.13;9.35;;;;;;;12.61;73.15;98492.66;5134611;27;20067;-75
2021/09/02 03:52:26;;;;;;;20.35;9.20;;;;;;;12.57;72.88;98488.66;5134482;27;20192;-77
2021/09/02 03:54:51;;;;;;;23.63;9.70;;;;;;;12.70;72.50;98489.03;5133130;27;20050;-75
2021/09/02 03:57:17;;;;;;;56.42;21.88;;;;;;;12.83;71.93;98482.44;5134295;27;20047;-75
2021/09/02 03:59:43;;;;;;;24.40;10.00;;;;;;;12.86;71.43;98477.66;5135058;27;20039;-74
2021/09/02 04:02:09;;;;;;;21.08;8.65;;;;;;;13.03;71.34;98486.44;5134924;27;20064;-73
2021/09/02 04:04:34;;;;;;;18.17;8.63;;;;;;;13.07;70.73;98485.13;5134776;27;20047;-77
2021/09/02 04:07:00;;;;;;;28.25;9.70;;;;;;;13.05;70.79;98471.19;5133510;27;20047;-78
2021/09/02 04:09:26;;;;;;;23.45;10.35;;;;;;;13.04;70.38;98480.16;5133770;27;20131;-75
2021/09/02 04:11:52;;;;;;;22.45;8.98;;;;;;;12.96;70.09;98482.81;5134224;27;20043;-75
2021/09/02 04:14:17;;;;;;;22.58;8.98;;;;;;;12.90;70.61;98481.63;5133191;27;20054;-75
2021/09/02 04:16:43;;;;;;;22.73;9.88;;;;;;;12.91;70.33;98485.09;5134451;27;20039;-77
2021/09/02 04:19:09;;;;;;;18.38;9.20;;;;;;;12.89;70.24;98481.78;5134627;27;20081;-77
2021/09/02 04:21:35;;;;;;;22.42;10.45;;;;;;;12.84;70.03;98484.09;5133681;27;20062;-75
2021/09/02 04:24:00;;;;;;;15.68;7.68;;;;;;;12.91;69.22;98485.09;5133120;27;20122;-75
2021/09/02 04:26:26;;;;;;;20.80;8.55;;;;;;;13.07;68.98;98485.13;5132762;27;20047;-76
2021/09/02 04:28:52;;;;;;;20.05;8.23;;;;;;;13.31;69.20;98488.81;5132902;27;20065;-73
2021/09/02 04:31:18;;;;;;;17.80;8.07;;;;;;;13.34;68.64;98490.31;5131377;27;20059;-74
2021/09/02 04:33:45;;;;;;;19.63;8.52;;;;;;;13.54;67.87;98488.16;5131457;27;20084;-77
2021/09/02 04:36:10;;;;;;;17.23;8.32;;;;;;;13.58;67.27;98492.16;5131362;27;20039;-75
2021/09/02 04:38:36;;;;;;;16.83;7.80;;;;;;;13.68;66.96;98492.81;5132527;27;20078;-74
2021/09/02 04:41:02;;;;;;;16.63;7.93;;;;;;;13.84;66.85;98491.94;5115701;27;20117;-75
2021/09/02 04:43:28;;;;;;;20.02;8.68;;;;;;;13.99;66.06;98488.59;5133762;27;20035;-76
2021/09/02 04:45:54;;;;;;;17.65;7.82;;;;;;;13.94;65.46;98496.25;5133993;27;20172;-74
2021/09/02 04:48:21;;;;;;;20.25;8.95;;;;;;;13.95;65.18;98493.44;5133123;27;20126;-77
2021/09/02 04:50:49;;;;;;;15.07;7.97;;;;;;;13.98;65.03;98498.41;5134040;27;20075;-76
2021/09/02 04:53:16;;;;;;;16.95;8.10;;;;;;;13.87;64.91;98498.78;5133120;27;20126;-74
2021/09/02 04:55:41;;;;;;;26.67;10.05;;;;;;;13.81;65.34;98497.63;5131861;27;20043;-77
2021/09/02 04:58:08;;;;;;;24.08;8.05;;;;;;;13.75;65.49;98493.78;5133405;27;20039;-75
2021/09/02 05:00:37;;;;;;;21.73;8.82;;;;;;;13.66;66.61;98494.81;5133406;27;20058;-76
2021/09/02 05:03:03;;;;;;;33.88;19.38;;;;;;;13.81;66.47;98496.78;5133477;27;20047;-76
2021/09/02 05:05:30;;;;;;;21.75;8.88;;;;;;;13.87;65.63;98498.78;5132806;27;20150;-78
2021/09/02 05:07:56;;;;;;;18.33;8.40;;;;;;;13.95;65.62;98493.44;5131673;27;20043;-76
2021/09/02 05:10:22;;;;;;;15.98;7.47;;;;;;;13.88;64.48;98497.75;5132665;27;20035;-75
2021/09/02 05:12:48;;;;;;;19.98;8.15;;;;;;;13.94;64.77;98501.56;5132782;27;20051;-75
2021/09/02 05:15:14;;;;;;;28.65;9.30;;;;;;;13.96;64.84;98499.59;5133222;27;20058;-77
2021/09/02 05:17:40;;;;;;;32.28;10.30;;;;;;;14.01;64.91;98502.56;5132580;27;20047;-77
2021/09/02 05:20:06;;;;;;;17.25;8.18;;;;;;;14.08;64.64;98500.88;5133064;27;20133;-75
2021/09/02 05:22:32;;;;;;;24.30;10.68;;;;;;;14.19;64.20;98499.69;5132637;27;20043;-79
2021/09/02 05:24:58;;;;;;;20.70;8.48;;;;;;;14.09;64.16;98499.88;5132108;27;20050;-76
2021/09/02 05:27:23;;;;;;;13.63;7.75;;;;;;;14.05;64.36;98493.25;5132620;27;20043;-75
2021/09/02 05:29:49;;;;;;;24.88;8.13;;;;;;;14.10;64.24;98496.22;5133001;27;20039;-79
2021/09/02 05:32:15;;;;;;;21.80;9.23;;;;;;;14.16;64.29;98506.19;5132772;27;20085;-76
2021/09/02 05:34:41;;;;;;;26.90;8.35;;;;;;;14.18;63.60;98500.69;5132281;27;20140;-76
2021/09/02 05:37:06;;;;;;;22.98;9.82;;;;;;;14.26;63.61;98503.31;5132970;27;20392;-75
2021/09/02 05:39:32;;;;;;;25.13;8.07;;;;;;;14.37;63.63;98507.44;5131223;27;20517;-82
2021/09/02 05:41:58;;;;;;;18.55;7.70;;;;;;;14.51;63.64;98500.56;5133098;27;20130;-76
2021/09/02 05:44:24;;;;;;;23.25;10.80;;;;;;;14.62;63.45;98505.50;5131191;27;20062;-77
2021/09/02 05:46:51;;;;;;;20.98;8.77;;;;;;;14.64;63.27;98508.84;5132558;27;20046;-78
2021/09/02 05:49:17;;;;;;;26.17;9.13;;;;;;;14.59;63.22;98503.19;5133374;27;20047;-75
2021/09/02 05:51:42;;;;;;;22.70;7.85;;;;;;;14.55;63.25;98499.22;5131402;27;20072;-76
2021/09/02 05:54:08;;;;;;;23.63;8.98;;;;;;;14.38;63.72;98504.63;5131366;27;20130;-77
2021/09/02 05:56:34;;;;;;;22.27;8.98;;;;;;;14.53;63.48;98506.56;5132722;27;20043;-80
2021/09/02 05:59:00;;;;;;;17.50;7.55;;;;;;;14.70;62.24;98508.19;5133351;27;20178;-78
2021/09/02 06:01:26;;;;;;;13.45;7.20;;;;;;;14.64;62.11;98516.81;5133690;27;20038;-78
2021/09/02 06:03:51;;;;;;;19.55;7.75;;;;;;;14.65;62.14;98523.81;5131641;27;20039;-79
2021/09/02 06:06:17;;;;;;;14.05;6.90;;;;;;;14.75;61.59;98520.13;5132807;27;20084;-78
2021/09/02 06:08:43;;;;;;;19.77;7.40;;;;;;;15.00;61.12;98513.66;5132942;27;20510;-80
2021/09/02 06:11:09;;;;;;;14.93;7.93;;;;;;;15.13;60.61;98514.94;5132955;27;20165;-79
2021/09/02 06:13:35;;;;;;;18.25;7.95;;;;;;;15.34;60.73;98515.09;5132879;27;20043;-77
2021/09/02 06:16:02;;;;;;;15.55;7.45;;;;;;;15.65;59.34;98527.53;5132530;27;20050;-80
2021/09/02 06:18:29;;;;;;;17.67;7.78;;;;;;;15.91;58.79;98523.63;5132117;27;20440;-79
2021/09/02 06:20:55;;;;;;;17.13;7.43;;;;;;;15.98;58.02;98524.56;5132123;27;20070;-77
2021/09/02 06:23:20;;;;;;;15.30;6.85;;;;;;;16.05;58.12;98522.03;5132092;27;20073;-79
2021/09/02 06:25:46;;;;;;;18.58;7.22;;;;;;;16.10;57.45;98524.13;5129914;28;20558;-78
2021/09/02 06:28:12;;;;;;;19.30;7.30;;;;;;;15.93;58.32;98534.97;5132395;28;20134;-77
2021/09/02 06:30:38;;;;;;;24.75;8.70;;;;;;;15.60;58.64;98534.38;5132199;27;20051;-78
2021/09/02 06:33:04;;;;;;;21.77;8.77;;;;;;;15.28;59.20;98531.78;5132268;27;20043;-76
2021/09/02 06:35:30;;;;;;;19.73;8.75;;;;;;;15.25;59.89;98541.97;5131817;27;20510;-78
2021/09/02 06:37:56;;;;;;;17.05;8.95;;;;;;;15.27;59.92;98543.44;5132022;28;20103;-77
2021/09/02 06:40:22;;;;;;;60.28;11.93;;;;;;;15.31;59.94;98536.75;5132035;27;20031;-78
2021/09/02 06:42:48;;;;;;;29.43;9.43;;;;;;;15.48;60.17;98536.66;5132503;28;20043;-81
2021/09/02 06:45:14;;;;;;;21.55;8.18;;;;;;;15.53;59.57;98532.44;5132606;27;20053;-76
2021/09/02 06:47:41;;;;;;;25.83;9.35;;;;;;;15.52;59.87;98541.44;5132873;28;20049;-78
2021/09/02 06:50:08;;;;;;;23.25;11.63;;;;;;;15.60;59.87;98540.56;5131320;28;20115;-76
2021/09/02 06:52:34;;;;;;;25.05;9.85;;;;;;;15.82;59.34;98546.06;5132611;27;20043;-77
2021/09/02 06:55:00;;;;;;;61.28;17.40;;;;;;;15.96;59.16;98545.28;5131680;27;20415;-76
2021/09/02 06:57:25;;;;;;;27.83;9.68;;;;;;;16.03;58.94;98549.88;5138460;27;20039;-78
2021/09/02 06:59:52;;;;;;;27.65;10.35;;;;;;;15.84;58.49;98554.72;5136811;27;20054;-76
2021/09/02 07:02:19;;;;;;;;;;;;;;;15.85;58.57;98548.38;5136652;27;20425;-75
2021/09/02 07:04:44;;;;;;;17.85;7.43;;;;;;;15.91;58.00;98552.97;5136437;27;19915;-81
2021/09/02 07:07:10;;;;;;;20.20;7.55;;;;;;;15.89;57.30;98557.66;5136078;27;20421;-80
2021/09/02 07:09:36;;;;;;;21.77;7.93;;;;;;;15.73;57.68;98552.44;5136394;27;20122;-79
2021/09/02 07:12:03;;;;;;;20.67;8.57;;;;;;;15.79;58.18;98559.72;5136044;27;20079;-79
2021/09/02 07:14:29;;;;;;;32.15;12.15;;;;;;;15.86;57.02;98566.00;5134898;27;20387;-76
2021/09/02 07:16:55;;;;;;;19.85;7.78;;;;;;;15.81;57.07;98560.38;5135786;27;20065;-75
2021/09/02 07:19:21;;;;;;;22.30;8.23;;;;;;;15.85;56.95;98565.19;5135920;27;20479;-74
2021/09/02 07:21:47;;;;;;;19.88;7.82;;;;;;;15.95;56.61;98564.09;5117574;27;20536;-81
2021/09/02 07:24:13;;;;;;;14.55;7.97;;;;;;;15.96;57.12;98561.28;5113273;27;20051;-83
2021/09/02 07:26:39;;;;;;;15.15;7.15;;;;;;;16.16;56.14;98555.41;5115329;28;20151;-82
2021/09/02 07:29:07;;;;;;;15.98;7.55;;;;;;;16.21;55.73;98553.00;5115263;28;20393;-79
2021/09/02 07:31:34;;;;;;;26.75;9.45;;;;;;;16.08;55.44;98568.84;5116012;28;20109;-77
2021/09/02 07:34:00;;;;;;;17.15;8.20;;;;;;;16.06;55.42;98565.50;5116175;28;20059;-76
2021/09/02 07:36:26;;;;;;;22.17;8.57;;;;;;;16.01;55.75;98569.56;5115199;28;20042;-76
2021/09/02 07:38:52;;;;;;;14.63;7.53;;;;;;;15.97;55.00;98573.56;5114887;28;20618;-80
2021/09/02 07:41:18;;;;;;;19.08;8.25;;;;;;;16.18;55.45;98572.06;5131764;27;20469;-77
2021/09/02 07:43:43;;;;;;;19.40;8.40;;;;;;;16.37;55.00;98570.69;5117073;28;20044;-78
2021/09/02 07:46:10;;;;;;;16.08;7.28;;;;;;;16.43;53.92;98571.81;5116482;28;20069;-78
2021/09/02 07:48:36;;;;;;;20.33;6.93;;;;;;;16.45;53.81;98577.81;5115559;28;20537;-79
2021/09/02 07:51:02;;;;;;;20.08;7.28;;;;;;;16.64;53.38;98571.88;5114735;28;20039;-76
2021/09/02 07:53:28;;;;;;;19.17;7.30;;;;;;;16.52;54.23;98581.38;5115897;27;20610;-77
2021/09/02 07:55:54;;;;;;;19.63;8.77;;;;;;;16.39;54.05;98575.88;5135943;27;20138;-79
2021/09/02 07:58:20;;;;;;;29.73;11.15;;;;;;;16.37;54.57;98577.88;5135582;27;20035;-80
2021/09/02 08:00:46;;;;;;;19.95;8.65;;;;;;;16.56;53.57;98577.34;5135337;27;20054;-75
2021/09/02 08:03:12;;;;;;;33.55;9.50;;;;;;;16.80;53.32;98578.88;5135572;27;20400;-76
2021/09/02 08:05:38;;;;;;;15.70;7.72;;;;;;;16.93;52.31;98577.44;5134286;27;20050;-78
2021/09/02 08:08:04;;;;;;;14.85;6.25;;;;;;;17.50;50.87;98575.78;5135436;27;20361;-79
2021/09/02 08:10:30;;;;;;;21.08;8.93;;;;;;;18.16;49.65;98574.75;5135194;27;20548;-76
2021/09/02 08:12:56;;;;;;;19.73;7.93;;;;;;;18.85;47.50;98569.56;5135313;27;20180;-77
2021/09/02 08:15:23;;;;;;;21.88;8.18;;;;;;;18.91;47.21;98579.53;5135347;27;20499;-76
2021/09/02 08:17:49;;;;;;;13.10;7.67;;;;;;;18.92;46.38;98575.81;5136280;27;20035;-76
2021/09/02 08:20:15;;;;;;;56.33;23.35;;;;;;;18.90;46.40;98580.50;5135947;27;20054;-80
2021/09/02 08:22:41;;;;;;;15.90;6.05;;;;;;;19.02;45.61;98570.09;5116608;27;20050;-79
2021/09/02 08:25:08;;;;;;;13.25;6.05;;;;;;;18.88;46.43;98569.19;5135089;27;20055;-78
2021/09/02 08:27:34;;;;;;;13.50;6.65;;;;;;;18.81;46.29;98574.50;5135347;27;20118;-77
2021/09/02 08:30:01;;;;;;;15.10;6.15;;;;;;;18.86;45.77;98573.91;5135111;27;20493;-76
2021/09/02 08:32:27;;;;;;;18.73;6.78;;;;;;;19.40;45.55;98566.88;5133521;27;20515;-80
2021/09/02 08:34:52;;;;;;;13.70;5.97;;;;;;;19.66;44.19;98567.97;5133454;27;20069;-79
